Time;durP1;ratioP1;P1;durP2;ratioP2;P2;SDS_P1;SDS_P2;PMS_P1;PMS_P2;Temp;Humidity;BMP_temperature;BMP_pressure;BME280_temperature;BME280_humidity;BME280_pressure;Samples;Min_cycle;Max_cycle;Signal;HPM_P1;HPM_P2
2023/12/21 00:02:01;;;;;;;;;;;;;;;17.52;44.61;99885.31;5061570;28;865;-51
2023/12/21 00:04:26;;;;;;;;;;;;;;;16.49;45.63;99871.22;5071815;28;1071;-50
2023/12/21 00:06:52;;;;;;;;;;;;;;;18.35;43.13;99883.94;5058781;28;1044;-54
2023/12/21 00:09:18;;;;;;;;;;;;;;;15.65;48.25;99886.16;5071837;28;1074;-51
2023/12/21 00:11:44;;;;;;;;;;;;;;;17.05;46.48;99888.59;5068129;28;1906;-54
2023/12/21 00:14:10;;;;;;;;;;;;;;;18.32;42.79;99880.72;5077691;28;1044;-54
2023/12/21 00:16:35;;;;;;;;;;;;;;;16.86;45.47;99877.78;5078544;28;1011;-50
2023/12/21 00:19:01;;;;;;;;;;;;;;;16.45;45.80;99879.59;5078333;28;1171;-53
2023/12/21 00:21:26;;;;;;;;;;;;;;;16.17;45.63;99882.78;5078626;28;1098;-51
2023/12/21 00:23:52;;;;;;;;;;;;;;;16.04;45.03;99888.31;5071311;28;2396;-54
2023/12/21 00:26:17;;;;;;;;;;;;;;;17.40;45.23;99881.13;5071603;28;920;-53
2023/12/21 00:28:43;;;;;;;;;;;;;;;16.68;45.93;99882.91;5075047;28;1023;-51
2023/12/21 00:31:09;;;;;;;;;;;;;;;17.35;45.45;99873.56;5067322;28;1251;-49
2023/12/21 00:33:34;;;;;;;;;;;;;;;18.17;43.14;99880.34;5057337;28;1906;-52
2023/12/21 00:36:00;;;;;;;;;;;;;;;16.74;45.55;99870.88;5058030;28;976;-51
2023/12/21 00:38:25;;;;;;;;;;;;;;;16.35;45.80;99876.88;5063096;28;1191;-50
2023/12/21 00:40:52;;;;;;;;;;;;;;;17.00;46.15;99876.53;5068479;28;1019;-50
2023/12/21 00:43:18;;;;;;;;;;;;;;;16.58;46.41;99864.25;5074323;28;1134;-53
2023/12/21 00:45:43;;;;;;;;;;;;;;;16.13;46.01;99860.97;5077730;28;1418;-49
2023/12/21 00:48:09;;;;;;;;;;;;;;;17.74;44.53;99870.03;5074472;28;1068;-52
2023/12/21 00:50:35;;;;;;;;;;;;;;;16.45;46.37;99867.13;5071526;28;856;-53
2023/12/21 00:53:01;;;;;;;;;;;;;;;16.68;46.95;99864.31;5064258;28;1967;-52
2023/12/21 00:55:26;;;;;;;;;;;;;;;17.18;45.08;99865.28;5067290;28;2682;-52
2023/12/21 00:57:52;;;;;;;;;;;;;;;16.29;46.23;99862.31;5063713;28;1035;-54
2023/12/21 01:00:17;;;;;;;;;;;;;;;17.67;44.78;99861.78;5078032;28;1099;-54
2023/12/21 01:02:43;;;;;;;;;;;;;;;16.59;46.10;99855.31;5075036;28;1004;-51
2023/12/21 01:05:08;;;;;;;;;;;;;;;16.37;46.69;99853.69;5066579;28;1044;-52
2023/12/21 01:07:34;;;;;;;;;;;;;;;17.21;45.13;99862.34;5076709;28;1040;-51
2023/12/21 01:09:59;;;;;;;;;;;;;;;16.31;46.28;99856.88;5077361;28;1085;-53
2023/12/21 01:12:25;;;;;;;;;;;;;;;16.86;46.48;99863.66;5074705;28;1910;-52
2023/12/21 01:14:50;;;;;;;;;;;;;;;16.88;45.69;99865.19;5071851;28;911;-50
2023/12/21 01:17:16;;;;;;;;;;;;;;;16.21;45.83;99855.03;5077082;28;1008;-53
2023/12/21 01:19:41;;;;;;;;;;;;;;;17.50;45.09;99860.66;5077255;28;1112;-51
2023/12/21 01:22:07;;;;;;;;;;;;;;;16.50;46.10;99862.28;5077062;28;1133;-53
2023/12/21 01:24:32;;;;;;;;;;;;;;;17.60;45.05;99866.00;5065081;28;2494;-49
2023/12/21 01:26:58;;;;;;;;;;;;;;;17.63;44.40;99873.69;5071964;28;880;-51
2023/12/21 01:29:23;;;;;;;;;;;;;;;16.60;45.88;99864.97;5068765;28;1138;-53
2023/12/21 01:31:50;;;;;;;;;;;;;;;16.18;45.55;99862.41;5071018;28;1905;-55
2023/12/21 01:34:15;;;;;;;;;;;;;;;17.34;45.55;99867.41;5068813;28;1035;-52
2023/12/21 01:36:41;;;;;;;;;;;;;;;16.59;46.10;99862.44;5069562;28;1168;-51
2023/12/21 01:39:08;;;;;;;;;;;;;;;16.18;45.95;99868.56;5072588;28;900;-53
2023/12/21 01:41:34;;;;;;;;;;;;;;;16.04;46.00;99864.44;5076132;28;1004;-53
2023/12/21 01:43:59;;;;;;;;;;;;;;;17.01;45.57;99866.75;5077062;28;1034;-54
2023/12/21 01:46:25;;;;;;;;;;;;;;;16.22;46.21;99864.66;5076245;28;1023;-52
2023/12/21 01:48:50;;;;;;;;;;;;;;;15.94;45.57;99856.38;5059072;28;1063;-55
2023/12/21 01:51:16;;;;;;;;;;;;;;;17.10;46.08;99851.84;5055794;28;957;-53
2023/12/21 01:53:41;;;;;;;;;;;;;;;16.55;46.19;99850.44;5060597;28;2433;-55
2023/12/21 01:56:07;;;;;;;;;;;;;;;16.08;46.20;99855.22;5069908;28;1082;-52
2023/12/21 01:58:32;;;;;;;;;;;;;;;17.28;45.82;99853.81;5065665;28;1044;-55
2023/12/21 02:00:58;;;;;;;;;;;;;;;16.58;46.27;99858.13;5060822;28;1071;-54
2023/12/21 02:03:26;;;;;;;;;;;;;;;17.40;45.49;99865.97;5072234;28;1019;-54
2023/12/21 02:05:52;;;;;;;;;;;;;;;17.77;43.91;99851.13;5073653;28;1123;-55
2023/12/21 02:08:17;;;;;;;;;;;;;;;16.64;45.97;99852.25;5065965;28;1120;-55
2023/12/21 02:10:43;;;;;;;;;;;;;;;16.16;46.11;99850.09;5058510;28;1233;-55
2023/12/21 02:13:08;;;;;;;;;;;;;;;17.52;44.73;99845.41;5076318;28;1975;-51
2023/12/21 02:15:34;;;;;;;;;;;;;;;16.49;46.12;99844.69;5072905;28;886;-51
2023/12/21 02:17:59;;;;;;;;;;;;;;;16.60;46.96;99845.56;5048718;28;1125;-55
2023/12/21 02:20:25;;;;;;;;;;;;;;;16.99;45.88;99845.66;5057670;28;1064;-55
2023/12/21 02:22:50;;;;;;;;;;;;;;;16.30;46.23;99844.59;5048794;28;1195;-55
2023/12/21 02:25:16;;;;;;;;;;;;;;;17.43;45.48;99848.94;5053334;28;2820;-53
2023/12/21 02:27:41;;;;;;;;;;;;;;;16.65;46.07;99851.28;5073228;28;905;-53
2023/12/21 02:30:07;;;;;;;;;;;;;;;16.22;45.93;99840.78;5073282;28;1012;-51
2023/12/21 02:32:32;;;;;;;;;;;;;;;15.89;45.81;99850.63;5055613;28;1981;-53
2023/12/21 02:34:58;;;;;;;;;;;;;;;17.57;45.34;99852.97;5069731;28;1160;-54
2023/12/21 02:37:23;;;;;;;;;;;;;;;16.51;46.62;99850.69;5057162;28;1075;-55
2023/12/21 02:39:49;;;;;;;;;;;;;;;17.15;46.13;99846.13;5072420;28;847;-54
2023/12/21 02:42:15;;;;;;;;;;;;;;;17.67;44.43;99844.97;5063620;28;1175;-52
2023/12/21 02:44:40;;;;;;;;;;;;;;;16.53;46.11;99846.06;5075636;28;923;-52
2023/12/21 02:47:06;;;;;;;;;;;;;;;16.20;45.86;99840.06;5076429;28;1122;-53
2023/12/21 02:49:31;;;;;;;;;;;;;;;16.58;46.55;99845.66;5060798;28;1226;-52
2023/12/21 02:51:57;;;;;;;;;;;;;;;17.19;45.56;99845.69;5073493;28;1984;-55
2023/12/21 02:54:22;;;;;;;;;;;;;;;16.30;46.17;99839.28;5066670;28;1859;-53
2023/12/21 02:56:48;;;;;;;;;;;;;;;16.50;46.84;99841.03;5068255;28;1044;-53
2023/12/21 02:59:13;;;;;;;;;;;;;;;17.28;45.30;99838.72;5069196;28;1004;-53
2023/12/21 03:01:42;;;;;;;;;;;;;;;16.29;46.80;99838.44;5063786;28;1012;-54
2023/12/21 03:04:11;;;;;;;;;;;;;;;17.89;44.60;99843.00;5060578;28;955;-53
2023/12/21 03:06:36;;;;;;;;;;;;;;;16.93;45.42;99838.22;5055766;28;1142;-56
2023/12/21 03:09:02;;;;;;;;;;;;;;;16.69;46.89;99838.56;5057062;28;1107;-55
2023/12/21 03:11:27;;;;;;;;;;;;;;;17.70;44.24;99837.56;5067635;28;1155;-55
2023/12/21 03:13:53;;;;;;;;;;;;;;;16.51;46.23;99839.22;5055896;28;1976;-54
2023/12/21 03:16:18;;;;;;;;;;;;;;;17.00;46.35;99843.81;5078821;28;968;-54
2023/12/21 03:18:47;;;;;;;;;;;;;;;16.80;45.73;99843.78;5078680;28;1020;-54
2023/12/21 03:21:13;;;;;;;;;;;;;;;16.18;46.19;99839.38;5070687;28;1111;-54
2023/12/21 03:23:40;;;;;;;;;;;;;;;16.59;46.92;99846.50;5059351;28;2493;-55
2023/12/21 03:26:06;;;;;;;;;;;;;;;17.34;44.87;99851.44;5067465;28;1055;-56
2023/12/21 03:28:32;;;;;;;;;;;;;;;16.43;46.07;99842.56;5059204;28;1028;-55
2023/12/21 03:30:57;;;;;;;;;;;;;;;18.04;43.96;99848.69;5068236;28;1199;-54
2023/12/21 03:33:23;;;;;;;;;;;;;;;16.96;45.46;99853.03;5047231;28;1898;-56
2023/12/21 03:35:48;;;;;;;;;;;;;;;16.75;46.77;99851.31;5079254;28;1063;-54
2023/12/21 03:38:14;;;;;;;;;;;;;;;17.84;43.87;99848.75;5079024;28;1151;-56
2023/12/21 03:40:39;;;;;;;;;;;;;;;16.59;45.98;99860.63;5070409;28;1163;-55
2023/12/21 03:43:05;;;;;;;;;;;;;;;16.43;45.26;99860.28;5060644;28;1117;-54
2023/12/21 03:45:30;;;;;;;;;;;;;;;17.76;44.50;99849.47;5078748;28;1016;-55
2023/12/21 03:47:56;;;;;;;;;;;;;;;16.49;46.23;99852.63;5077188;28;1044;-53
2023/12/21 03:50:21;;;;;;;;;;;;;;;17.23;45.91;99864.88;5059803;28;1102;-57
2023/12/21 03:52:47;;;;;;;;;;;;;;;17.48;44.65;99865.31;5078409;28;1966;-56
2023/12/21 03:55:12;;;;;;;;;;;;;;;16.55;45.76;99855.72;5069271;28;2499;-55
2023/12/21 03:57:38;;;;;;;;;;;;;;;16.23;45.70;99858.38;5078277;28;1043;-52
2023/12/21 04:00:03;;;;;;;;;;;;;;;16.40;46.11;99866.69;5078544;28;1105;-53
2023/12/21 04:02:30;;;;;;;;;;;;;;;17.06;45.46;99864.53;5077744;28;1071;-53
2023/12/21 04:04:56;;;;;;;;;;;;;;;16.34;45.98;99870.72;5078519;28;1011;-52
2023/12/21 04:07:21;;;;;;;;;;;;;;;16.77;46.63;99873.25;5078649;28;1023;-53
2023/12/21 04:09:47;;;;;;;;;;;;;;;16.96;45.71;99879.63;5078087;28;1086;-55
2023/12/21 04:12:12;;;;;;;;;;;;;;;16.27;46.06;99881.03;5077467;28;1902;-55
2023/12/21 04:14:38;;;;;;;;;;;;;;;16.56;46.81;99874.19;5060013;28;1015;-53
2023/12/21 04:17:04;;;;;;;;;;;;;;;17.03;45.37;99878.09;5078063;28;1036;-53
2023/12/21 04:19:29;;;;;;;;;;;;;;;16.36;46.63;99891.84;5078265;28;1070;-51
2023/12/21 04:21:55;;;;;;;;;;;;;;;18.31;43.46;99889.72;5065355;28;1186;-51
2023/12/21 04:24:20;;;;;;;;;;;;;;;16.97;45.47;99886.59;5067777;28;2535;-52
2023/12/21 04:26:45;;;;;;;;;;;;;;;16.33;45.70;99890.25;5070706;28;1179;-55
2023/12/21 04:29:11;;;;;;;;;;;;;;;16.20;45.26;99901.09;5057967;28;1188;-51
2023/12/21 04:31:42;;;;;;;;;;;;;;;17.30;45.32;99902.38;5072569;28;1910;-54
2023/12/21 04:34:08;;;;;;;;;;;;;;;16.44;45.98;99899.97;5078497;28;1055;-49
2023/12/21 04:36:34;;;;;;;;;;;;;;;16.11;45.45;99907.19;5063255;28;1090;-49
2023/12/21 04:38:59;;;;;;;;;;;;;;;17.31;45.65;99912.88;5062552;28;1155;-50
2023/12/21 04:41:25;;;;;;;;;;;;;;;16.44;46.23;99912.41;5070858;28;1008;-52
2023/12/21 04:43:50;;;;;;;;;;;;;;;17.28;45.68;99926.44;5066336;28;1139;-50
2023/12/21 04:46:17;;;;;;;;;;;;;;;17.48;44.58;99921.97;5064554;28;1079;-51
2023/12/21 04:48:42;;;;;;;;;;;;;;;16.56;45.72;99919.31;5069615;28;1093;-48
2023/12/21 04:51:13;;;;;;;;;;;;;;;16.15;45.42;99920.06;5069476;28;1181;-53
2023/12/21 04:53:38;;;;;;;;;;;;;;;16.77;46.48;99929.88;5073189;28;1910;-44
2023/12/21 04:56:04;;;;;;;;;;;;;;;16.65;45.82;99923.81;5070572;28;1076;-55
2023/12/21 04:58:31;;;;;;;;;;;;;;;16.46;47.21;99923.72;5058041;28;1240;-50
2023/12/21 05:00:56;;;;;;;;;;;;;;;18.13;43.50;99919.75;5072650;28;1120;-53
2023/12/21 05:03:22;;;;;;;;;;;;;;;16.67;45.92;99913.06;5074130;28;1222;-50
2023/12/21 05:05:47;;;;;;;;;;;;;;;16.64;46.67;99926.63;5076960;28;1012;-53
2023/12/21 05:08:13;;;;;;;;;;;;;;;16.88;45.69;99928.94;5077472;28;1133;-55
2023/12/21 05:10:39;;;;;;;;;;;;;;;16.33;45.63;99926.59;5077366;28;1106;-50
2023/12/21 05:13:04;;;;;;;;;;;;;;;17.17;45.98;99929.19;5077368;28;2107;-52
2023/12/21 05:15:30;;;;;;;;;;;;;;;16.89;45.80;99935.09;5064492;28;1051;-52
2023/12/21 05:17:55;;;;;;;;;;;;;;;16.26;46.04;99939.56;5057498;28;1091;-52
2023/12/21 05:20:21;;;;;;;;;;;;;;;17.42;44.95;99948.25;5076781;28;1222;-52
2023/12/21 05:22:46;;;;;;;;;;;;;;;16.38;45.97;99954.41;5064115;28;1135;-48
2023/12/21 05:25:12;;;;;;;;;;;;;;;16.85;45.48;99954.94;5059403;28;2404;-50
2023/12/21 05:27:37;;;;;;;;;;;;;;;17.37;44.02;99970.81;5062751;28;1111;-53
2023/12/21 05:30:03;;;;;;;;;;;;;;;16.94;44.83;99975.41;5070454;28;996;-51
2023/12/21 05:32:29;;;;;;;;;;;;;;;16.64;45.61;99969.09;5069367;28;1909;-53
2023/12/21 05:34:54;;;;;;;;;;;;;;;16.42;45.92;99970.94;5070342;28;1027;-49
2023/12/21 05:37:20;;;;;;;;;;;;;;;16.26;46.32;99974.91;5061084;28;1020;-52
2023/12/21 05:39:48;;;;;;;;;;;;;;;16.01;47.08;99965.50;5070349;28;1113;-52
2023/12/21 05:42:13;;;;;;;;;;;;;;;15.88;47.30;99977.06;5069090;28;1027;-49
2023/12/21 05:44:39;;;;;;;;;;;;;;;15.72;47.13;99982.81;5056870;28;1083;-51
2023/12/21 05:47:04;;;;;;;;;;;;;;;15.63;47.74;99980.91;5069235;28;1024;-51
2023/12/21 05:49:30;;;;;;;;;;;;;;;15.59;47.64;99987.44;5057414;28;1087;-51
2023/12/21 05:51:55;;;;;;;;;;;;;;;15.38;47.86;99988.22;5076228;28;1907;-50
2023/12/21 05:54:21;;;;;;;;;;;;;;;15.96;47.04;99991.53;5068902;28;2273;-51
2023/12/21 05:56:46;;;;;;;;;;;;;;;17.08;44.32;99991.94;5062828;28;1051;-53
2023/12/21 05:59:12;;;;;;;;;;;;;;;16.22;45.96;99993.84;5075975;28;1035;-52
2023/12/21 06:01:38;;;;;;;;;;;;;;;15.84;47.00;99996.88;5073255;28;1094;-50
2023/12/21 06:04:04;;;;;;;;;;;;;;;15.60;47.64;100010.34;5074209;28;1091;-51
2023/12/21 06:06:30;;;;;;;;;;;;;;;16.79;45.24;100006.78;5076408;28;1075;-52
2023/12/21 06:08:55;;;;;;;;;;;;;;;16.69;45.02;100006.72;5076039;28;1086;-53
2023/12/21 06:11:20;;;;;;;;;;;;;;;16.13;46.05;100001.59;5076717;28;1062;-53
2023/12/21 06:13:46;;;;;;;;;;;;;;;15.77;47.12;99985.06;5075949;28;1910;-52
2023/12/21 06:16:12;;;;;;;;;;;;;;;16.52;44.04;99993.09;5069416;28;1130;-54
2023/12/21 06:18:39;;;;;;;;;;;;;;;17.33;42.88;99976.53;5074186;28;1194;-56
2023/12/21 06:21:04;;;;;;;;;;;;;;;17.27;42.53;99991.19;5076634;28;1020;-52
2023/12/21 06:23:30;;;;;;;;;;;;;;;16.14;45.41;99998.00;5076012;28;1186;-52
2023/12/21 06:25:55;;;;;;;;;;;;;;;15.87;45.90;99999.28;5076393;28;1019;-53
2023/12/21 06:28:23;;;;;;;;;;;;;;;15.99;46.13;100001.91;5073163;28;1079;-47
2023/12/21 06:30:49;;;;;;;;;;;;;;;17.35;42.86;100004.66;5064926;28;1131;-51
2023/12/21 06:33:14;;;;;;;;;;;;;;;16.43;44.82;100015.13;5073934;28;1914;-55
2023/12/21 06:35:40;;;;;;;;;;;;;;;15.99;46.07;100024.00;5077039;28;1190;-52
2023/12/21 06:38:06;;;;;;;;;;;;;;;15.77;46.64;100033.66;5076271;28;1103;-53
2023/12/21 06:40:32;;;;;;;;;;;;;;;15.55;46.86;100024.78;5073880;28;1136;-51
2023/12/21 06:42:57;;;;;;;;;;;;;;;16.27;45.54;100031.47;5075901;28;1365;-55
2023/12/21 06:45:23;;;;;;;;;;;;;;;17.28;43.18;100029.25;5076648;28;1158;-53
2023/12/21 06:47:48;;;;;;;;;;;;;;;16.34;45.03;100039.75;5076064;28;1015;-52
2023/12/21 06:50:14;;;;;;;;;;;;;;;15.90;45.91;100038.81;5080751;28;1048;-49
2023/12/21 06:52:39;;;;;;;;;;;;;;;15.73;46.65;100042.00;5079660;28;2083;-51
2023/12/21 06:55:05;;;;;;;;;;;;;;;16.95;43.97;100046.16;5079367;28;1218;-52
2023/12/21 06:57:31;;;;;;;;;;;;;;;16.67;44.34;100045.00;5067062;28;1087;-55
2023/12/21 06:59:56;;;;;;;;;;;;;;;16.07;45.75;100046.38;5080412;28;1055;-51
2023/12/21 07:02:22;;;;;;;;;;;;;;;15.82;46.37;100045.69;5080280;28;1159;-54
2023/12/21 07:04:47;;;;;;;;;;;;;;;15.65;46.99;100051.41;5071059;28;1047;-50
2023/12/21 07:07:13;;;;;;;;;;;;;;;16.56;45.17;100059.19;5079165;28;1223;-50
2023/12/21 07:09:38;;;;;;;;;;;;;;;17.17;43.15;100068.25;5078358;28;1163;-51
2023/12/21 07:12:05;;;;;;;;;;;;;;;16.21;45.54;100069.97;5079913;28;1898;-53
2023/12/21 07:14:31;;;;;;;;;;;;;;;15.81;46.19;100071.41;5079896;28;1099;-53
2023/12/21 07:16:56;;;;;;;;;;;;;;;15.62;47.08;100075.50;5074337;28;1059;-50
2023/12/21 07:19:22;;;;;;;;;;;;;;;16.85;44.50;100083.28;5079380;28;1356;-50
2023/12/21 07:21:48;;;;;;;;;;;;;;;16.85;44.00;100074.50;5061532;28;1301;-54
2023/12/21 07:24:13;;;;;;;;;;;;;;;16.15;45.65;100083.72;5079144;28;1118;-51
2023/12/21 07:26:39;;;;;;;;;;;;;;;15.88;46.14;100087.66;5080178;28;1145;-51
2023/12/21 07:29:04;;;;;;;;;;;;;;;15.58;47.05;100094.44;5079060;28;955;-51
2023/12/21 07:31:30;;;;;;;;;;;;;;;16.43;45.50;100101.88;5074414;28;1078;-53
2023/12/21 07:33:55;;;;;;;;;;;;;;;17.02;43.66;100089.81;5074876;28;1906;-48
2023/12/21 07:36:21;;;;;;;;;;;;;;;16.18;45.56;100098.56;5078999;28;1067;-53
2023/12/21 07:38:46;;;;;;;;;;;;;;;15.77;46.75;100099.09;5078609;28;1218;-52
2023/12/21 07:41:12;;;;;;;;;;;;;;;15.61;46.93;100097.69;5069462;28;1142;-53
2023/12/21 07:43:38;;;;;;;;;;;;;;;17.00;44.15;100091.75;5076503;28;1214;-53
2023/12/21 07:46:04;;;;;;;;;;;;;;;16.62;44.66;100095.84;5079258;28;1095;-54
2023/12/21 07:48:29;;;;;;;;;;;;;;;16.04;45.80;100097.88;5078742;28;1007;-53
2023/12/21 07:50:55;;;;;;;;;;;;;;;15.73;46.54;100087.91;5079629;28;1043;-53
2023/12/21 07:53:20;;;;;;;;;;;;;;;16.81;44.45;100096.97;5071024;28;1901;-48
2023/12/21 07:55:46;;;;;;;;;;;;;;;17.13;43.37;100072.16;5078881;28;1368;-48
2023/12/21 07:58:13;;;;;;;;;;;;;;;16.27;45.21;100073.94;5079142;28;1058;-52
2023/12/21 08:00:38;;;;;;;;;;;;;;;15.88;46.25;100069.91;5078016;28;1063;-51
2023/12/21 08:03:04;;;;;;;;;;;;;;;15.69;46.67;100078.53;5079490;28;1206;-52
2023/12/21 08:05:29;;;;;;;;;;;;;;;16.31;46.01;100079.81;5073347;28;1083;-48
2023/12/21 08:07:55;;;;;;;;;;;;;;;17.04;43.67;100073.75;5078622;28;1055;-50
2023/12/21 08:10:20;;;;;;;;;;;;;;;16.26;45.21;100066.94;5078907;28;1090;-52
2023/12/21 08:12:46;;;;;;;;;;;;;;;15.85;46.46;100070.16;5078955;28;1910;-53
2023/12/21 08:15:11;;;;;;;;;;;;;;;16.36;45.56;100070.53;5077850;28;1086;-54
2023/12/21 08:17:38;;;;;;;;;;;;;;;17.11;43.61;100074.94;5067704;28;1139;-50
2023/12/21 08:20:04;;;;;;;;;;;;;;;16.26;45.47;100080.22;5077166;28;1179;-50
2023/12/21 08:22:30;;;;;;;;;;;;;;;15.93;46.25;100082.81;5078401;28;1111;-49
2023/12/21 08:24:57;;;;;;;;;;;;;;;15.61;46.86;100076.50;5078493;28;1165;-53
2023/12/21 08:27:23;;;;;;;;;;;;;;;16.67;44.48;100079.53;5077788;28;1158;-52
2023/12/21 08:29:49;;;;;;;;;;;;;;;16.96;43.65;100077.06;5077812;28;1079;-50
2023/12/21 08:32:14;;;;;;;;;;;;;;;16.15;45.55;100078.44;5077940;28;1962;-51
2023/12/21 08:34:40;;;;;;;;;;;;;;;15.82;46.26;100070.41;5077866;28;1131;-52
2023/12/21 08:37:05;;;;;;;;;;;;;;;15.79;46.70;100055.59;5077794;28;1109;-51
2023/12/21 08:39:31;;;;;;;;;;;;;;;17.24;43.23;100049.94;5078250;28;1107;-49
2023/12/21 08:41:56;;;;;;;;;;;;;;;16.43;44.83;100046.97;5066096;28;1059;-52
2023/12/21 08:44:22;;;;;;;;;;;;;;;15.98;45.97;100050.63;5069475;28;1154;-53
2023/12/21 08:46:47;;;;;;;;;;;;;;;15.72;46.89;100048.25;5077671;28;1027;-49
2023/12/21 08:49:15;;;;;;;;;;;;;;;16.58;44.94;100044.81;5078239;28;1012;-47
2023/12/21 08:51:41;;;;;;;;;;;;;;;16.94;43.91;100033.00;5077918;28;1051;-50
2023/12/21 08:54:07;;;;;;;;;;;;;;;16.19;45.75;100026.81;5076070;28;1981;-54
2023/12/21 08:56:33;;;;;;;;;;;;;;;15.81;46.61;100022.81;5059573;28;1060;-51
2023/12/21 08:58:58;;;;;;;;;;;;;;;15.61;46.85;100025.25;5077819;28;1039;-50
2023/12/21 09:01:24;;;;;;;;;;;;;;;16.58;45.09;100017.44;5077861;28;1098;-50
2023/12/21 09:03:49;;;;;;;;;;;;;;;16.91;43.78;100026.16;5077935;28;1044;-50
2023/12/21 09:06:15;;;;;;;;;;;;;;;16.21;45.47;100024.00;5063603;28;1168;-53
2023/12/21 09:08:40;;;;;;;;;;;;;;;15.79;46.45;100031.75;5077501;28;1117;-53
2023/12/21 09:11:06;;;;;;;;;;;;;;;15.56;47.02;100020.34;5077227;28;1071;-49
2023/12/21 09:13:31;;;;;;;;;;;;;;;16.86;44.29;100017.72;5076349;28;1984;-52
2023/12/21 09:15:57;;;;;;;;;;;;;;;16.76;44.14;100015.88;5075263;28;1119;-54
2023/12/21 09:18:22;;;;;;;;;;;;;;;16.10;45.92;100036.34;5076668;28;1074;-46
2023/12/21 09:20:48;;;;;;;;;;;;;;;15.75;46.62;100006.41;5076607;28;1328;-49
2023/12/21 09:23:13;;;;;;;;;;;;;;;15.63;47.09;100012.75;5077038;28;1427;-51
2023/12/21 09:25:39;;;;;;;;;;;;;;;16.80;44.75;100012.94;5077462;28;1230;-53
2023/12/21 09:28:05;;;;;;;;;;;;;;;16.70;44.41;100010.25;5076992;28;1399;-55
2023/12/21 09:30:30;;;;;;;;;;;;;;;16.14;45.84;100007.75;5076497;28;1134;-53
2023/12/21 09:32:59;;;;;;;;;;;;;;;15.66;46.77;100009.84;5076980;28;1910;-52
2023/12/21 09:35:24;;;;;;;;;;;;;;;15.81;46.80;100010.41;5076998;28;1249;-53
2023/12/21 09:37:50;;;;;;;;;;;;;;;17.15;43.62;100008.22;5076988;28;1419;-54
2023/12/21 09:40:16;;;;;;;;;;;;;;;16.25;45.64;100010.34;5076836;28;1483;-53
2023/12/21 09:42:45;;;;;;;;;;;;;;;15.90;46.20;100022.91;5077261;28;1141;-51
2023/12/21 09:45:11;;;;;;;;;;;;;;;15.59;47.10;100016.59;5076493;28;1439;-51
2023/12/21 09:47:37;;;;;;;;;;;;;;;16.29;45.60;100018.91;5076793;28;1399;-51
2023/12/21 09:50:04;;;;;;;;;;;;;;;17.21;43.16;100011.19;5076946;28;1435;-49
2023/12/21 09:52:29;;;;;;;;;;;;;;;16.27;45.16;100005.78;5059043;28;1934;-54
2023/12/21 09:54:55;;;;;;;;;;;;;;;15.91;46.06;100019.25;5076547;28;1193;-53
2023/12/21 09:57:20;;;;;;;;;;;;;;;15.64;46.84;100006.47;5058913;28;1356;-50
2023/12/21 09:59:46;;;;;;;;;;;;;;;15.78;46.75;100006.16;5058892;28;1317;-52
2023/12/21 10:02:14;;;;;;;;;;;;;;;17.28;43.47;100002.69;5059023;28;1427;-56
2023/12/21 10:04:40;;;;;;;;;;;;;;;16.59;44.45;99992.56;5076337;28;1177;-54
2023/12/21 10:07:06;;;;;;;;;;;;;;;15.94;46.36;99996.97;5056285;28;865;-51
2023/12/21 10:09:34;;;;;;;;;;;;;;;15.64;46.81;99998.50;5046298;28;1142;-49
2023/12/21 10:11:59;;;;;;;;;;;;;;;15.55;47.18;99995.63;5075247;28;1906;-53
2023/12/21 10:14:27;;;;;;;;;;;;;;;17.02;43.92;99980.88;5074701;28;1598;-54
2023/12/21 10:16:53;;;;;;;;;;;;;;;16.65;44.31;99976.09;5072274;28;1012;-54
2023/12/21 10:19:18;;;;;;;;;;;;;;;16.02;45.65;99965.38;5037588;28;864;-54
2023/12/21 10:21:46;;;;;;;;;;;;;;;15.72;46.42;99953.63;5073768;28;1021;-51
2023/12/21 10:24:11;;;;;;;;;;;;;;;17.07;43.90;99947.72;5075309;28;1094;-56
2023/12/21 10:26:43;;;;;;;;;;;;;;;16.49;44.99;99934.94;5076145;28;1076;-51
2023/12/21 10:29:09;;;;;;;;;;;;;;;15.98;46.09;99923.28;5075862;28;1111;-48
2023/12/21 10:31:34;;;;;;;;;;;;;;;15.79;46.66;99927.47;5063871;28;1168;-52
2023/12/21 10:34:02;;;;;;;;;;;;;;;17.23;43.44;99912.72;5076096;28;1961;-51
2023/12/21 10:36:27;;;;;;;;;;;;;;;16.47;44.75;99901.50;5062656;28;1067;-51
2023/12/21 10:38:53;;;;;;;;;;;;;;;16.01;46.06;99905.34;5076505;28;1221;-51
2023/12/21 10:41:18;;;;;;;;;;;;;;;15.72;46.75;99897.09;5076417;28;1122;-51
2023/12/21 10:43:45;;;;;;;;;;;;;;;15.90;46.47;99886.78;5045980;28;903;-50
2023/12/21 10:46:10;;;;;;;;;;;;;;;17.25;43.15;99889.47;5058232;28;1177;-49
2023/12/21 10:48:38;;;;;;;;;;;;;;;16.41;44.85;99884.31;5076342;28;1193;-53
2023/12/21 10:51:04;;;;;;;;;;;;;;;15.90;46.36;99878.81;5058532;28;1142;-52
2023/12/21 10:53:29;;;;;;;;;;;;;;;15.63;47.06;99873.03;5076007;28;1906;-52
2023/12/21 10:55:55;;;;;;;;;;;;;;;16.50;45.15;99872.91;5048789;28;1026;-52
2023/12/21 10:58:21;;;;;;;;;;;;;;;17.17;43.16;99879.53;5058576;28;1170;-49
2023/12/21 11:00:47;;;;;;;;;;;;;;;16.35;45.15;99887.50;5076248;28;1182;-55
2023/12/21 11:03:16;;;;;;;;;;;;;;;15.95;46.09;99886.41;5058583;28;1215;-52
2023/12/21 11:05:42;;;;;;;;;;;;;;;15.72;46.72;99879.41;5074741;28;1098;-56
2023/12/21 11:08:07;;;;;;;;;;;;;;;15.99;46.22;99875.44;5057425;28;1060;-50
2023/12/21 11:10:33;;;;;;;;;;;;;;;17.36;43.26;99883.22;5058859;28;1020;-52
2023/12/21 11:12:59;;;;;;;;;;;;;;;16.41;45.03;99892.28;5054957;28;1982;-53
2023/12/21 11:15:24;;;;;;;;;;;;;;;16.00;45.95;99892.16;5072513;28;917;-52
2023/12/21 11:17:50;;;;;;;;;;;;;;;15.70;46.52;99878.69;5071957;28;949;-51
2023/12/21 11:20:17;;;;;;;;;;;;;;;16.07;45.96;99889.84;5068263;28;1092;-52
2023/12/21 11:22:43;;;;;;;;;;;;;;;17.27;43.20;99889.38;5057113;28;1056;-52
2023/12/21 11:25:12;;;;;;;;;;;;;;;16.36;44.84;99897.13;5074973;28;1475;-51
2023/12/21 11:27:40;;;;;;;;;;;;;;;15.95;45.92;99875.78;5073093;28;1139;-51
2023/12/21 11:30:10;;;;;;;;;;;;;;;16.18;45.63;99873.88;5071558;28;1045;-53
2023/12/21 11:32:46;;;;;;;;;;;;;;;17.24;43.07;99870.06;5071701;28;1902;-53
2023/12/21 11:35:18;;;;;;;;;;;;;;;16.35;45.18;99876.88;5073873;28;1164;-50
2023/12/21 11:37:44;;;;;;;;;;;;;;;15.95;46.10;99862.53;5078185;28;1020;-53
2023/12/21 11:40:11;;;;;;;;;;;;;;;15.59;47.00;99861.03;5078038;28;1074;-54
2023/12/21 11:42:37;;;;;;;;;;;;;;;17.09;43.58;99858.97;5078067;28;1312;-53
2023/12/21 11:45:02;;;;;;;;;;;;;;;16.63;44.51;99848.75;5078318;28;1435;-47
2023/12/21 11:47:29;;;;;;;;;;;;;;;15.96;45.84;99840.31;5078545;28;1054;-49
2023/12/21 11:50:07;;;;;;;;;;;;;;;15.71;46.45;99845.06;5076389;28;1127;-51
2023/12/21 11:52:33;;;;;;;;;;;;;;;16.43;45.21;99854.97;5077982;28;1906;-51
2023/12/21 11:54:59;;;;;;;;;;;;;;;17.25;42.98;99855.78;5078231;28;1347;-48
2023/12/21 11:57:26;;;;;;;;;;;;;;;16.32;45.20;99846.13;5078506;28;1356;-54
2023/12/21 12:00:05;;;;;;;;;;;;;;;15.90;46.04;99836.38;5078057;28;1420;-51
2023/12/21 12:02:32;;;;;;;;;;;;;;;15.64;46.99;99837.63;5076803;28;1114;-51
2023/12/21 12:04:57;;;;;;;;;;;;;;;17.00;43.96;99834.03;5078326;28;1091;-51
2023/12/21 12:07:23;;;;;;;;;;;;;;;16.85;43.86;99830.09;5065274;28;1107;-53
2023/12/21 12:09:48;;;;;;;;;;;;;;;16.20;45.39;99812.72;5060518;28;1133;-55
2023/12/21 12:12:14;;;;;;;;;;;;;;;15.82;46.25;99825.56;5078191;28;1898;-49
2023/12/21 12:14:39;;;;;;;;;;;;;;;16.10;46.13;99826.75;5059829;28;1298;-48
2023/12/21 12:17:06;;;;;;;;;;;;;;;17.24;43.32;99839.97;5078305;28;1093;-51
2023/12/21 12:19:31;;;;;;;;;;;;;;;16.39;45.00;99836.66;5072424;28;1055;-51
2023/12/21 12:21:57;;;;;;;;;;;;;;;15.92;46.14;99845.06;5078050;28;1348;-53
2023/12/21 12:24:22;;;;;;;;;;;;;;;15.69;46.95;99849.63;5078203;28;1064;-48
2023/12/21 12:26:48;;;;;;;;;;;;;;;17.17;43.62;99858.28;5077794;28;1419;-48
2023/12/21 12:29:15;;;;;;;;;;;;;;;16.79;44.19;99857.19;5077592;28;1091;-49
2023/12/21 12:31:41;;;;;;;;;;;;;;;16.09;45.82;99853.41;5066869;28;1036;-54
2023/12/21 12:34:06;;;;;;;;;;;;;;;15.84;46.02;99851.00;5060015;28;1914;-53
2023/12/21 12:36:32;;;;;;;;;;;;;;;15.63;47.00;99864.28;5077519;28;1114;-51
2023/12/21 12:38:57;;;;;;;;;;;;;;;17.07;43.66;99868.88;5078127;28;1056;-48
2023/12/21 12:41:23;;;;;;;;;;;;;;;16.64;44.38;99869.03;5077776;28;1020;-51
2023/12/21 12:43:49;;;;;;;;;;;;;;;16.11;45.57;99868.25;5072741;28;882;-51
2023/12/21 12:46:15;;;;;;;;;;;;;;;15.73;46.51;99853.72;5077401;28;1047;-51
2023/12/21 12:48:40;;;;;;;;;;;;;;;15.81;46.49;99855.72;5077242;28;1079;-51